Ana Sayfa
METAR-TAF:

METAR-TAF

Havaalanları :

Pasto, Kolombiya

Enlem: 01-25N, Boylam: 077-16W, yükseklik: 1826 m

Güncel hava durumu gözlemi

Rapor saat 16:00 UTC de 22 dakika önce yapıldı.
Rüzgar batıdan 4 kt
Sıcaklık 24°C
Nem 47%
Basınç 1021 hPa
Görüş mesafesi 10 km veya daha fazla
2500 ft yükseklikte parçalı çok bulutlu
Civarda sağanaklar

METAR: SKPS 181600Z 28004KT 9999 VCSH BKN025 24/12 A3016 RMK VCSH S

Saat: 11:22 (16:22 UTC)


TAF: eksik

4.000'den fazla havaalanı için hava durumu gözlemleri ve tahminleri (METAR ve TAF raporları).

Kullanılabilir istasyonlar harita üzerinde sarı ve kırmızı noktalarla gösterilir.

İstasyonun adını görmek için fareyi noktanın üzerinde gezdirin.

Sonrasında hava gözlem ve tahminlerini görmek için tıklayın.

Haritayı değiştirmek için: yaklaştırmak için siyah artı işaretli yeşil düğmeye ve uzaklaştırmak için de eksi işaretli düğmeye hızla tıklayın; bitişik haritalar için yeşil okları kullanın.


METAR-TAF: